createdAt,value
2018-09-22T00:00:32.647Z,20.20
2018-09-22T00:03:00.094Z,20.20
2018-09-22T00:05:27.520Z,20.30
2018-09-22T00:07:54.948Z,20.20
2018-09-22T00:10:22.358Z,20.20
2018-09-22T00:12:49.736Z,20.20
2018-09-22T00:15:17.146Z,20.10
2018-09-22T00:17:45.039Z,20.10
2018-09-22T00:20:12.458Z,20.10
2018-09-22T00:22:40.024Z,20.10
2018-09-22T00:25:07.414Z,20.10
2018-09-22T00:27:34.852Z,20.00
2018-09-22T00:30:02.226Z,20.00
2018-09-22T00:32:29.647Z,20.00
2018-09-22T00:34:57.061Z,20.00
2018-09-22T00:37:24.471Z,20.00
2018-09-22T00:39:51.841Z,20.00
2018-09-22T00:42:19.282Z,20.00
2018-09-22T00:44:46.678Z,20.00
2018-09-22T00:47:14.103Z,20.00
2018-09-22T00:49:41.539Z,19.90
2018-09-22T00:52:08.940Z,19.90
2018-09-22T00:54:36.352Z,19.90
2018-09-22T00:57:03.899Z,19.90
2018-09-22T00:59:31.326Z,19.90
2018-09-22T01:01:58.737Z,19.90
2018-09-22T01:04:26.149Z,19.90
2018-09-22T01:06:53.533Z,19.90
2018-09-22T01:09:20.998Z,19.80
2018-09-22T01:11:48.453Z,19.80
2018-09-22T01:14:15.859Z,19.80
2018-09-22T01:16:43.289Z,19.80
2018-09-22T01:19:10.750Z,19.80
2018-09-22T01:21:38.133Z,19.70
2018-09-22T01:24:05.590Z,19.70
2018-09-22T01:26:33.027Z,19.70
2018-09-22T01:29:00.477Z,19.70
2018-09-22T01:31:27.923Z,19.70
2018-09-22T01:33:55.351Z,19.70
2018-09-22T01:36:22.749Z,19.70
2018-09-22T01:38:50.108Z,19.70
2018-09-22T01:41:17.549Z,19.80
2018-09-22T01:43:44.946Z,19.70
2018-09-22T01:46:12.405Z,19.80
2018-09-22T01:48:39.803Z,19.70
2018-09-22T01:51:07.228Z,19.70
2018-09-22T01:53:34.711Z,19.70
2018-09-22T01:56:02.137Z,19.70
2018-09-22T01:58:29.585Z,19.70
2018-09-22T02:00:57.125Z,19.70
2018-09-22T02:03:24.543Z,19.70
2018-09-22T02:05:51.958Z,19.70
2018-09-22T02:08:19.383Z,19.70
2018-09-22T02:10:46.821Z,19.70
2018-09-22T02:13:14.221Z,19.70
2018-09-22T02:15:41.652Z,19.60
2018-09-22T02:18:09.049Z,19.70
2018-09-22T02:20:36.468Z,19.70
2018-09-22T02:23:03.891Z,19.70
2018-09-22T02:25:31.331Z,19.70
2018-09-22T02:27:58.720Z,19.70
2018-09-22T02:30:26.132Z,19.70
2018-09-22T02:32:53.548Z,19.70
2018-09-22T02:35:20.958Z,19.70
2018-09-22T02:37:48.392Z,19.70
2018-09-22T02:40:15.782Z,19.70
2018-09-22T02:42:43.232Z,19.60
2018-09-22T02:45:10.636Z,19.70
2018-09-22T02:47:38.060Z,19.70
2018-09-22T02:50:05.800Z,19.70
2018-09-22T02:52:33.223Z,19.70
2018-09-22T02:55:00.647Z,19.70
2018-09-22T02:57:28.047Z,19.60
2018-09-22T02:59:55.432Z,19.60
2018-09-22T03:02:22.866Z,19.60
2018-09-22T03:04:50.274Z,19.60
2018-09-22T03:07:17.681Z,19.50
2018-09-22T03:09:45.100Z,19.60
2018-09-22T03:12:12.626Z,19.60
2018-09-22T03:14:40.041Z,19.60
2018-09-22T03:17:07.461Z,19.60
2018-09-22T03:19:34.910Z,19.60
2018-09-22T03:22:02.392Z,19.60
2018-09-22T03:24:29.842Z,19.60
2018-09-22T03:26:57.245Z,19.50
2018-09-22T03:29:24.680Z,19.50
2018-09-22T03:31:52.112Z,19.50
2018-09-22T03:34:19.534Z,19.50
2018-09-22T03:36:46.914Z,19.50
2018-09-22T03:39:14.327Z,19.50
2018-09-22T03:41:41.714Z,19.50
2018-09-22T03:44:09.808Z,19.50
2018-09-22T03:46:37.298Z,19.40
2018-09-22T03:49:05.076Z,19.40
2018-09-22T03:51:32.497Z,19.40
2018-09-22T03:53:59.921Z,19.40
2018-09-22T03:56:27.295Z,19.40
2018-09-22T03:58:54.717Z,19.40
2018-09-22T04:01:22.185Z,19.30
2018-09-22T04:03:49.605Z,19.30
2018-09-22T04:06:17.023Z,19.30
2018-09-22T04:08:44.445Z,19.20
2018-09-22T04:11:11.851Z,19.20
2018-09-22T04:13:39.271Z,19.20
2018-09-22T04:16:06.720Z,19.20
2018-09-22T04:18:34.126Z,19.20
2018-09-22T04:21:01.673Z,19.10
2018-09-22T04:23:29.073Z,19.10
2018-09-22T04:25:56.483Z,19.10
2018-09-22T04:28:23.943Z,19.10
2018-09-22T04:30:51.363Z,19.00
2018-09-22T04:33:18.842Z,19.00
2018-09-22T04:35:46.223Z,19.00
2018-09-22T04:38:13.632Z,19.00
2018-09-22T04:40:41.091Z,18.90
2018-09-22T04:43:08.519Z,18.90
2018-09-22T04:45:35.922Z,18.80
2018-09-22T04:48:03.309Z,18.70
2018-09-22T04:50:30.737Z,18.70
2018-09-22T04:52:58.143Z,18.60
2018-09-22T04:55:25.568Z,18.60
2018-09-22T04:57:52.947Z,18.50
2018-09-22T05:00:20.403Z,18.50
2018-09-22T05:02:47.795Z,18.50
2018-09-22T05:05:15.192Z,18.50
2018-09-22T05:07:42.612Z,18.40
2018-09-22T05:10:10.009Z,18.40
2018-09-22T05:12:37.446Z,18.50
2018-09-22T05:15:05.182Z,18.40
2018-09-22T05:17:32.651Z,18.50
2018-09-22T05:20:00.861Z,18.50
2018-09-22T05:22:28.281Z,18.40
2018-09-22T05:24:55.696Z,16.00
2018-09-22T05:27:23.119Z,18.40
2018-09-22T05:29:50.534Z,18.40
2018-09-22T05:32:17.971Z,18.50
2018-09-22T05:34:45.364Z,18.40
2018-09-22T05:37:12.816Z,18.40
2018-09-22T05:39:40.230Z,18.40
2018-09-22T05:42:07.657Z,18.40
2018-09-22T05:44:35.078Z,18.40
2018-09-22T05:47:02.534Z,18.40
2018-09-22T05:49:29.918Z,18.40
2018-09-22T05:51:57.318Z,18.30
2018-09-22T05:54:24.820Z,18.30
2018-09-22T05:56:52.226Z,18.20
2018-09-22T05:59:19.660Z,18.20
2018-09-22T06:01:47.096Z,18.20
2018-09-22T06:04:14.508Z,18.20
2018-09-22T06:06:41.904Z,18.10
2018-09-22T06:09:09.900Z,18.10
2018-09-22T06:11:37.295Z,21.10
2018-09-22T06:14:04.846Z,18.10
2018-09-22T06:16:32.226Z,18.10
2018-09-22T06:18:59.702Z,18.10
2018-09-22T06:21:27.141Z,18.10
2018-09-22T06:23:54.612Z,18.10
2018-09-22T06:26:22.009Z,18.10
2018-09-22T06:28:49.469Z,18.10
2018-09-22T06:31:17.405Z,18.10
2018-09-22T06:33:44.940Z,18.10
2018-09-22T06:36:13.005Z,18.10
2018-09-22T06:38:40.432Z,18.10
2018-09-22T06:41:07.882Z,18.10
2018-09-22T06:43:35.327Z,18.20
2018-09-22T06:46:02.758Z,18.20
2018-09-22T06:48:30.170Z,18.20
2018-09-22T06:50:57.584Z,18.30
2018-09-22T06:53:25.035Z,18.30
2018-09-22T06:55:52.532Z,18.40
2018-09-22T06:58:19.937Z,18.40
2018-09-22T07:00:47.333Z,18.40
2018-09-22T07:03:14.829Z,18.50
2018-09-22T07:05:42.364Z,18.50
2018-09-22T07:08:09.783Z,18.50
2018-09-22T07:10:37.241Z,18.60
2018-09-22T07:13:04.725Z,18.60
2018-09-22T07:15:32.179Z,18.70
2018-09-22T07:17:59.664Z,18.70
2018-09-22T07:20:27.069Z,18.80
2018-09-22T07:23:00.130Z,18.80
2018-09-22T07:25:27.620Z,18.90
2018-09-22T07:27:55.059Z,19.00
2018-09-22T07:30:22.527Z,19.00
2018-09-22T07:32:49.957Z,19.10
2018-09-22T07:35:17.471Z,19.20
2018-09-22T07:37:44.923Z,19.20
2018-09-22T07:40:12.356Z,19.30
2018-09-22T07:42:39.808Z,19.40
2018-09-22T07:45:07.379Z,19.50
2018-09-22T07:47:34.971Z,19.40
2018-09-22T07:50:02.477Z,19.60
2018-09-22T07:52:29.923Z,19.60
2018-09-22T07:54:57.327Z,19.70
2018-09-22T07:57:24.845Z,19.80
2018-09-22T07:59:52.283Z,19.90
2018-09-22T08:02:19.720Z,19.90
2018-09-22T08:04:47.150Z,20.10
2018-09-22T08:07:14.579Z,20.20
2018-09-22T08:09:42.005Z,20.30
2018-09-22T08:12:09.459Z,20.40
2018-09-22T08:14:36.898Z,20.60
2018-09-22T08:17:04.363Z,20.70
2018-09-22T08:19:31.770Z,20.80
2018-09-22T08:21:59.259Z,20.90
2018-09-22T08:24:26.679Z,21.10
2018-09-22T08:26:54.220Z,21.20
2018-09-22T08:29:21.715Z,21.30
2018-09-22T08:31:49.193Z,21.40
2018-09-22T08:34:16.865Z,21.60
2018-09-22T08:36:44.471Z,21.70
2018-09-22T08:39:12.449Z,21.80
2018-09-22T08:41:39.986Z,21.90
2018-09-22T08:44:07.465Z,22.00
2018-09-22T08:46:34.869Z,22.10
2018-09-22T08:49:02.354Z,22.20
2018-09-22T08:51:29.787Z,22.30
2018-09-22T08:53:57.204Z,22.40
2018-09-22T08:56:24.608Z,22.50
2018-09-22T08:58:52.029Z,22.60
2018-09-22T09:01:19.481Z,22.70
2018-09-22T09:03:46.946Z,22.70
2018-09-22T09:06:14.369Z,22.80
2018-09-22T09:08:41.772Z,22.90
2018-09-22T09:11:09.202Z,22.80
2018-09-22T09:13:36.619Z,23.00
2018-09-22T09:16:04.025Z,23.10
2018-09-22T09:18:31.645Z,23.20
2018-09-22T09:20:59.052Z,23.40
2018-09-22T09:23:26.545Z,23.60
2018-09-22T09:25:53.982Z,23.80
2018-09-22T09:28:21.414Z,23.90
2018-09-22T09:30:49.066Z,24.10
2018-09-22T09:33:16.466Z,24.20
2018-09-22T09:35:43.919Z,24.30
2018-09-22T09:38:11.396Z,24.30
2018-09-22T09:40:38.822Z,24.40
2018-09-22T09:43:06.320Z,24.50
2018-09-22T09:45:33.764Z,24.60
2018-09-22T09:48:01.728Z,24.70
2018-09-22T09:50:29.187Z,24.80
2018-09-22T09:52:56.588Z,24.90
2018-09-22T09:55:24.010Z,25.00
2018-09-22T09:57:51.454Z,25.10
2018-09-22T10:00:23.421Z,25.20
2018-09-22T10:02:50.881Z,25.20
2018-09-22T10:05:18.526Z,25.30
2018-09-22T10:07:45.963Z,25.40
2018-09-22T10:10:13.382Z,25.40
2018-09-22T10:12:41.026Z,25.60
2018-09-22T10:15:08.508Z,25.70
2018-09-22T10:17:35.961Z,25.70
2018-09-22T10:20:03.461Z,25.80
2018-09-22T10:22:30.872Z,25.80
2018-09-22T10:24:58.368Z,25.80
2018-09-22T10:27:25.818Z,25.80
2018-09-22T10:29:53.233Z,25.90
2018-09-22T10:32:20.773Z,26.00
2018-09-22T10:34:48.179Z,26.10
2018-09-22T10:37:15.593Z,26.30
2018-09-22T10:39:43.065Z,26.50
2018-09-22T10:42:10.521Z,26.70
2018-09-22T10:44:37.937Z,26.90
2018-09-22T10:47:05.417Z,27.10
2018-09-22T10:49:32.820Z,27.30
2018-09-22T10:52:00.263Z,27.30
2018-09-22T10:54:27.956Z,27.30
2018-09-22T10:56:55.474Z,27.30
2018-09-22T10:59:22.902Z,27.20
2018-09-22T11:01:50.310Z,27.10
2018-09-22T11:04:17.710Z,27.10
2018-09-22T11:06:45.182Z,27.10
2018-09-22T11:09:12.629Z,26.80
2018-09-22T11:11:40.073Z,27.20
2018-09-22T11:14:07.497Z,27.30
2018-09-22T11:16:34.898Z,27.40
2018-09-22T11:19:02.326Z,27.50
2018-09-22T11:21:29.814Z,27.60
2018-09-22T11:23:57.261Z,30.20
2018-09-22T11:26:24.684Z,27.90
2018-09-22T11:28:52.137Z,28.10
2018-09-22T11:31:19.557Z,28.30
2018-09-22T11:33:47.227Z,28.50
2018-09-22T11:36:14.628Z,28.60
2018-09-22T11:38:42.077Z,28.70
2018-09-22T11:41:09.513Z,28.90
2018-09-22T11:43:36.926Z,29.00
2018-09-22T11:46:04.387Z,29.10
2018-09-22T11:48:31.830Z,29.30
2018-09-22T11:50:59.271Z,29.50
2018-09-22T11:53:26.676Z,29.70
2018-09-22T11:55:54.084Z,29.90
2018-09-22T11:58:21.527Z,30.10
2018-09-22T12:00:48.945Z,30.40
2018-09-22T12:03:16.326Z,30.70
2018-09-22T12:05:43.772Z,31.10
2018-09-22T12:08:11.160Z,31.50
2018-09-22T12:10:38.585Z,31.90
2018-09-22T12:13:06.011Z,32.40
2018-09-22T12:15:33.442Z,32.90
2018-09-22T12:18:00.843Z,33.50
2018-09-22T12:20:28.258Z,33.90
2018-09-22T12:22:55.695Z,34.40
2018-09-22T12:25:23.123Z,34.80
2018-09-22T12:27:50.598Z,34.90
2018-09-22T12:30:18.054Z,34.90
2018-09-22T12:32:45.570Z,34.90
2018-09-22T12:35:13.000Z,34.90
2018-09-22T12:37:40.406Z,34.90
2018-09-22T12:40:07.906Z,34.90
2018-09-22T12:42:35.330Z,35.00
2018-09-22T12:45:02.822Z,35.00
2018-09-22T12:47:30.256Z,35.10
2018-09-22T12:49:57.667Z,35.40
2018-09-22T12:52:25.674Z,35.60
2018-09-22T12:54:53.598Z,35.90
2018-09-22T12:57:21.050Z,36.30
2018-09-22T12:59:48.497Z,36.50
2018-09-22T13:02:16.097Z,36.80
2018-09-22T13:04:44.331Z,37.00
2018-09-22T13:07:11.777Z,37.10
2018-09-22T13:09:39.337Z,37.20
2018-09-22T13:12:06.804Z,37.30
2018-09-22T13:14:34.236Z,37.30
2018-09-22T13:17:01.744Z,37.40
2018-09-22T13:19:29.279Z,37.50
2018-09-22T13:21:56.811Z,37.60
2018-09-22T13:24:24.341Z,37.70
2018-09-22T13:26:52.000Z,37.80
2018-09-22T13:29:19.395Z,37.90
2018-09-22T13:31:46.803Z,38.00
2018-09-22T13:34:14.212Z,38.10
2018-09-22T13:36:41.639Z,38.30
2018-09-22T13:39:10.517Z,38.40
2018-09-22T13:41:37.947Z,38.50
2018-09-22T13:44:05.459Z,38.50
2018-09-22T13:46:32.892Z,38.60
2018-09-22T13:49:00.337Z,38.60
2018-09-22T13:51:27.769Z,38.70
2018-09-22T13:53:55.210Z,38.80
2018-09-22T13:56:22.717Z,38.90
2018-09-22T13:58:50.215Z,39.00
2018-09-22T14:01:17.618Z,39.00
2018-09-22T14:03:45.100Z,39.00
2018-09-22T14:06:12.553Z,38.90
2018-09-22T14:08:39.971Z,38.90
2018-09-22T14:11:07.432Z,38.70
2018-09-22T14:13:34.898Z,38.60
2018-09-22T14:16:02.348Z,38.60
2018-09-22T14:18:29.861Z,38.20
2018-09-22T14:20:57.240Z,38.00
2018-09-22T14:23:24.638Z,37.90
2018-09-22T14:25:52.071Z,37.60
2018-09-22T14:28:19.482Z,37.30
2018-09-22T14:30:46.952Z,36.90
2018-09-22T14:33:14.346Z,36.40
2018-09-22T14:35:41.800Z,35.70
2018-09-22T14:38:09.212Z,35.10
2018-09-22T14:40:36.990Z,34.40
2018-09-22T14:43:05.336Z,33.80
2018-09-22T14:45:33.510Z,33.10
2018-09-22T14:48:00.946Z,32.40
2018-09-22T14:50:28.382Z,31.90
2018-09-22T14:52:55.864Z,31.40
2018-09-22T14:55:23.283Z,30.90
2018-09-22T14:57:50.683Z,30.50
2018-09-22T15:00:18.108Z,30.10
2018-09-22T15:02:45.534Z,29.70
2018-09-22T15:05:12.966Z,29.40
2018-09-22T15:07:40.412Z,29.20
2018-09-22T15:10:08.111Z,28.90
2018-09-22T15:12:35.632Z,28.70
2018-09-22T15:15:03.172Z,28.60
2018-09-22T15:17:30.751Z,28.50
2018-09-22T15:19:58.134Z,28.40
2018-09-22T15:22:25.572Z,28.40
2018-09-22T15:24:52.964Z,25.10
2018-09-22T15:27:20.384Z,28.60
2018-09-22T15:29:47.826Z,28.70
2018-09-22T15:32:15.244Z,29.00
2018-09-22T15:34:42.636Z,29.10
2018-09-22T15:37:10.083Z,29.30
2018-09-22T15:39:37.514Z,29.30
2018-09-22T15:42:05.080Z,29.30
2018-09-22T15:44:32.516Z,29.20
2018-09-22T15:46:59.925Z,29.10
2018-09-22T15:49:27.376Z,28.90
2018-09-22T15:51:54.806Z,28.70
2018-09-22T15:54:22.220Z,28.50
2018-09-22T15:56:49.760Z,28.20
2018-09-22T15:59:17.184Z,28.00
2018-09-22T16:01:44.666Z,27.70
2018-09-22T16:04:12.272Z,27.50
2018-09-22T16:06:39.681Z,27.30
2018-09-22T16:09:08.368Z,27.00
2018-09-22T16:11:36.018Z,26.80
2018-09-22T16:14:04.080Z,26.50
2018-09-22T16:16:31.495Z,26.20
2018-09-22T16:18:58.952Z,26.00
2018-09-22T16:21:26.436Z,25.80
2018-09-22T16:23:53.898Z,25.30
2018-09-22T16:26:21.335Z,25.40
2018-09-22T16:28:48.758Z,25.20
2018-09-22T16:31:16.233Z,25.10
2018-09-22T16:33:43.670Z,24.90
2018-09-22T16:36:11.121Z,24.70
2018-09-22T16:38:38.598Z,24.60
2018-09-22T16:41:06.168Z,24.40
2018-09-22T16:43:33.594Z,24.30
2018-09-22T16:46:01.029Z,24.20
2018-09-22T16:48:28.569Z,24.10
2018-09-22T16:50:56.055Z,24.10
2018-09-22T16:53:23.502Z,24.00
2018-09-22T16:55:50.896Z,23.90
2018-09-22T16:58:18.353Z,23.80
2018-09-22T17:00:45.765Z,23.80
2018-09-22T17:03:13.180Z,23.70
2018-09-22T17:05:40.643Z,23.60
2018-09-22T17:08:08.098Z,23.50
2018-09-22T17:10:35.569Z,23.50
2018-09-22T17:13:03.044Z,23.40
2018-09-22T17:15:30.481Z,23.40
2018-09-22T17:17:57.929Z,23.30
2018-09-22T17:20:25.353Z,23.30
2018-09-22T17:22:52.779Z,23.20
2018-09-22T17:25:20.205Z,23.10
2018-09-22T17:27:47.646Z,23.10
2018-09-22T17:30:15.130Z,23.10
2018-09-22T17:32:42.518Z,23.00
2018-09-22T17:35:09.949Z,23.00
2018-09-22T17:37:37.439Z,22.90
2018-09-22T17:40:05.347Z,22.90
2018-09-22T17:42:32.812Z,22.90
2018-09-22T17:45:00.212Z,22.90
2018-09-22T17:47:27.676Z,22.90
2018-09-22T17:49:55.104Z,22.80
2018-09-22T17:52:22.545Z,22.80
2018-09-22T17:54:49.940Z,22.80
2018-09-22T17:57:17.385Z,22.70
2018-09-22T17:59:44.839Z,22.70
2018-09-22T18:02:12.230Z,22.70
2018-09-22T18:04:39.656Z,22.70
2018-09-22T18:07:07.081Z,22.60
2018-09-22T18:09:34.497Z,22.60
2018-09-22T18:12:01.994Z,22.60
2018-09-22T18:14:29.499Z,22.50
2018-09-22T18:16:56.968Z,22.60
2018-09-22T18:19:24.597Z,22.60
2018-09-22T18:21:52.034Z,22.60
2018-09-22T18:24:19.509Z,22.50
2018-09-22T18:26:47.016Z,22.50
2018-09-22T18:29:14.663Z,22.50
2018-09-22T18:31:42.089Z,22.50
2018-09-22T18:34:09.642Z,22.50
2018-09-22T18:36:37.046Z,22.40
2018-09-22T18:39:06.357Z,22.40
2018-09-22T18:41:34.002Z,22.40
2018-09-22T18:44:01.456Z,22.30
2018-09-22T18:46:28.906Z,22.30
2018-09-22T18:48:56.424Z,22.30
2018-09-22T18:51:23.970Z,22.30
2018-09-22T18:53:51.427Z,22.30
2018-09-22T18:56:18.842Z,22.20
2018-09-22T18:58:46.279Z,22.20
2018-09-22T19:01:13.799Z,22.20
2018-09-22T19:03:41.263Z,22.20
2018-09-22T19:06:08.739Z,22.20
2018-09-22T19:08:36.182Z,22.10
2018-09-22T19:11:03.684Z,22.10
2018-09-22T19:13:34.863Z,22.10
2018-09-22T19:16:09.247Z,22.00
2018-09-22T19:18:42.334Z,22.00
2018-09-22T19:21:15.182Z,22.00
2018-09-22T19:23:47.142Z,21.90
2018-09-22T19:26:19.562Z,21.90
2018-09-22T19:28:54.815Z,21.90
2018-09-22T19:31:26.883Z,21.80
2018-09-22T19:33:57.289Z,21.80
2018-09-22T19:36:35.635Z,21.80
2018-09-22T19:39:07.105Z,21.70
2018-09-22T19:41:44.131Z,21.70
2018-09-22T19:44:24.025Z,21.10
2018-09-22T19:46:57.997Z,21.60
2018-09-22T19:49:29.366Z,21.60
2018-09-22T19:52:02.945Z,21.60
2018-09-22T19:54:30.403Z,21.50
2018-09-22T19:56:57.817Z,21.50
2018-09-22T19:59:25.310Z,21.50
2018-09-22T20:01:53.005Z,21.40
2018-09-22T20:04:20.459Z,21.30
2018-09-22T20:06:48.045Z,21.30
2018-09-22T20:09:15.461Z,21.30
2018-09-22T20:11:43.147Z,21.20
2018-09-22T20:14:10.480Z,21.20
2018-09-22T20:16:37.947Z,21.10
2018-09-22T20:19:05.348Z,21.20
2018-09-22T20:21:32.813Z,21.10
2018-09-22T20:24:00.352Z,21.10
2018-09-22T20:26:27.756Z,21.10
2018-09-22T20:28:55.263Z,21.10
2018-09-22T20:31:22.699Z,21.10
2018-09-22T20:33:50.184Z,21.10
2018-09-22T20:36:17.737Z,21.00
2018-09-22T20:38:45.132Z,21.00
2018-09-22T20:41:13.011Z,21.00
2018-09-22T20:43:40.482Z,21.00
2018-09-22T20:46:07.977Z,21.00
2018-09-22T20:48:35.547Z,21.00
2018-09-22T20:51:02.995Z,20.90
2018-09-22T20:53:30.452Z,20.90
2018-09-22T20:55:57.890Z,20.90
2018-09-22T20:58:25.370Z,20.90
2018-09-22T21:00:52.784Z,20.80
2018-09-22T21:03:20.205Z,20.80
2018-09-22T21:05:47.757Z,20.70
2018-09-22T21:08:15.167Z,20.70
2018-09-22T21:10:42.622Z,20.60
2018-09-22T21:13:10.093Z,20.60
2018-09-22T21:15:37.564Z,20.60
2018-09-22T21:19:02.507Z,20.50
2018-09-22T21:23:03.462Z,20.50
2018-09-22T21:25:30.912Z,20.50
2018-09-22T21:27:58.464Z,20.50
2018-09-22T21:30:25.868Z,20.50
2018-09-22T21:32:53.461Z,20.40
2018-09-22T21:35:20.898Z,20.40
2018-09-22T21:37:48.395Z,20.40
2018-09-22T21:40:15.843Z,20.40
2018-09-22T21:42:43.284Z,20.30
2018-09-22T21:45:10.738Z,20.30
2018-09-22T21:47:38.147Z,20.30
2018-09-22T21:50:05.578Z,20.30
2018-09-22T21:54:55.066Z,20.20
2018-09-22T21:57:22.475Z,20.20
2018-09-22T21:59:49.914Z,20.20
2018-09-22T22:02:17.401Z,20.20
2018-09-22T22:04:44.884Z,20.20
2018-09-22T22:07:12.359Z,20.20
2018-09-22T22:09:39.822Z,20.20
2018-09-22T22:12:07.309Z,20.20
2018-09-22T22:14:34.762Z,20.20
2018-09-22T22:17:02.258Z,20.20
2018-09-22T22:19:29.764Z,20.20
2018-09-22T22:21:57.237Z,20.20
2018-09-22T22:24:24.626Z,20.20
2018-09-22T22:26:52.088Z,20.20
2018-09-22T22:29:19.506Z,20.20
2018-09-22T22:31:46.941Z,20.20
2018-09-22T22:34:14.495Z,20.20
2018-09-22T22:36:41.918Z,20.20
2018-09-22T22:39:09.343Z,20.20
2018-09-22T22:41:36.802Z,20.20
2018-09-22T22:44:04.461Z,20.20
2018-09-22T22:46:31.894Z,20.20
2018-09-22T22:48:59.301Z,20.10
2018-09-22T22:51:26.776Z,20.10
2018-09-22T22:53:54.181Z,20.10
2018-09-22T22:56:21.600Z,20.10
2018-09-22T22:58:49.046Z,20.10
2018-09-22T23:01:16.486Z,20.00
2018-09-22T23:03:43.908Z,20.00
2018-09-22T23:06:11.345Z,20.00
2018-09-22T23:08:38.774Z,20.00
2018-09-22T23:11:06.216Z,19.90
2018-09-22T23:13:33.642Z,19.90
2018-09-22T23:16:01.086Z,19.90
2018-09-22T23:18:28.564Z,19.90
2018-09-22T23:20:56.007Z,19.80
2018-09-22T23:23:23.400Z,19.90
2018-09-22T23:25:50.830Z,19.80
2018-09-22T23:28:18.250Z,19.70
2018-09-22T23:30:45.692Z,19.70
2018-09-22T23:33:13.137Z,19.60
2018-09-22T23:35:40.533Z,19.70
2018-09-22T23:38:07.985Z,19.60
2018-09-22T23:40:35.422Z,19.60
2018-09-22T23:43:02.889Z,19.50
2018-09-22T23:45:30.290Z,19.60
2018-09-22T23:47:57.734Z,19.60
2018-09-22T23:50:25.144Z,19.50
2018-09-22T23:52:52.926Z,19.50
2018-09-22T23:55:20.366Z,19.50
2018-09-22T23:57:47.742Z,19.50
